sensor_id;sensor_type;location;lat;lon;timestamp;P1;durP1;ratioP1;P2;durP2;ratioP2
4547;SDS011;2286;51.570;7.090;2023-06-14T00:00:21;5.20;;;4.70;;
4547;SDS011;2286;51.570;7.090;2023-06-14T00:02:51;5.20;;;4.80;;
4547;SDS011;2286;51.570;7.090;2023-06-14T00:05:21;5.80;;;4.70;;
4547;SDS011;2286;51.570;7.090;2023-06-14T00:07:48;5.07;;;4.67;;
4547;SDS011;2286;51.570;7.090;2023-06-14T00:10:18;6.70;;;4.50;;
4547;SDS011;2286;51.570;7.090;2023-06-14T00:12:46;7.03;;;4.37;;
4547;SDS011;2286;51.570;7.090;2023-06-14T00:15:13;4.73;;;4.27;;
4547;SDS011;2286;51.570;7.090;2023-06-14T00:17:40;4.17;;;3.83;;
4547;SDS011;2286;51.570;7.090;2023-06-14T00:20:11;6.53;;;4.47;;
4547;SDS011;2286;51.570;7.090;2023-06-14T00:22:39;4.43;;;4.13;;
4547;SDS011;2286;51.570;7.090;2023-06-14T00:25:06;7.87;;;4.73;;
4547;SDS011;2286;51.570;7.090;2023-06-14T00:27:34;6.43;;;4.27;;
4547;SDS011;2286;51.570;7.090;2023-06-14T00:30:01;4.40;;;4.00;;
4547;SDS011;2286;51.570;7.090;2023-06-14T00:32:28;5.00;;;4.10;;
4547;SDS011;2286;51.570;7.090;2023-06-14T00:34:55;4.13;;;3.83;;
4547;SDS011;2286;51.570;7.090;2023-06-14T00:37:24;4.40;;;4.00;;
4547;SDS011;2286;51.570;7.090;2023-06-14T00:39:51;4.20;;;3.80;;
4547;SDS011;2286;51.570;7.090;2023-06-14T00:42:24;6.10;;;3.97;;
4547;SDS011;2286;51.570;7.090;2023-06-14T00:44:52;4.97;;;4.50;;
4547;SDS011;2286;51.570;7.090;2023-06-14T00:47:19;4.60;;;4.00;;
4547;SDS011;2286;51.570;7.090;2023-06-14T00:49:47;3.83;;;3.53;;
4547;SDS011;2286;51.570;7.090;2023-06-14T00:52:16;7.43;;;5.33;;
4547;SDS011;2286;51.570;7.090;2023-06-14T00:54:45;4.20;;;3.80;;
4547;SDS011;2286;51.570;7.090;2023-06-14T00:57:12;8.53;;;3.63;;
4547;SDS011;2286;51.570;7.090;2023-06-14T00:59:41;5.50;;;4.50;;
4547;SDS011;2286;51.570;7.090;2023-06-14T01:02:10;5.20;;;3.27;;
4547;SDS011;2286;51.570;7.090;2023-06-14T01:04:40;4.30;;;3.70;;
4547;SDS011;2286;51.570;7.090;2023-06-14T01:07:11;5.20;;;3.80;;
4547;SDS011;2286;51.570;7.090;2023-06-14T01:09:53;7.07;;;4.90;;
4547;SDS011;2286;51.570;7.090;2023-06-14T01:12:35;4.90;;;4.10;;
4547;SDS011;2286;51.570;7.090;2023-06-14T01:15:07;4.53;;;3.30;;
4547;SDS011;2286;51.570;7.090;2023-06-14T01:17:35;3.93;;;3.63;;
4547;SDS011;2286;51.570;7.090;2023-06-14T01:20:07;6.60;;;3.70;;
4547;SDS011;2286;51.570;7.090;2023-06-14T01:22:37;5.43;;;3.53;;
4547;SDS011;2286;51.570;7.090;2023-06-14T01:25:12;11.63;;;3.77;;
4547;SDS011;2286;51.570;7.090;2023-06-14T01:27:39;3.83;;;3.43;;
4547;SDS011;2286;51.570;7.090;2023-06-14T01:30:07;3.67;;;3.40;;
4547;SDS011;2286;51.570;7.090;2023-06-14T01:32:36;3.83;;;3.53;;
4547;SDS011;2286;51.570;7.090;2023-06-14T01:35:04;6.47;;;3.50;;
4547;SDS011;2286;51.570;7.090;2023-06-14T01:37:32;3.90;;;3.50;;
4547;SDS011;2286;51.570;7.090;2023-06-14T01:40:01;3.73;;;3.40;;
4547;SDS011;2286;51.570;7.090;2023-06-14T01:42:32;7.73;;;4.13;;
4547;SDS011;2286;51.570;7.090;2023-06-14T01:45:00;6.67;;;3.70;;
4547;SDS011;2286;51.570;7.090;2023-06-14T01:47:28;7.07;;;3.57;;
4547;SDS011;2286;51.570;7.090;2023-06-14T01:49:56;3.40;;;3.10;;
4547;SDS011;2286;51.570;7.090;2023-06-14T01:52:23;3.87;;;3.47;;
4547;SDS011;2286;51.570;7.090;2023-06-14T01:54:50;5.40;;;3.67;;
4547;SDS011;2286;51.570;7.090;2023-06-14T01:57:19;3.60;;;3.30;;
4547;SDS011;2286;51.570;7.090;2023-06-14T01:59:46;5.53;;;3.73;;
4547;SDS011;2286;51.570;7.090;2023-06-14T02:02:14;3.93;;;3.53;;
4547;SDS011;2286;51.570;7.090;2023-06-14T02:04:42;8.80;;;3.40;;
4547;SDS011;2286;51.570;7.090;2023-06-14T02:07:09;5.37;;;3.67;;
4547;SDS011;2286;51.570;7.090;2023-06-14T02:09:36;5.20;;;3.07;;
4547;SDS011;2286;51.570;7.090;2023-06-14T02:12:03;4.13;;;3.30;;
4547;SDS011;2286;51.570;7.090;2023-06-14T02:14:32;5.33;;;3.33;;
4547;SDS011;2286;51.570;7.090;2023-06-14T02:16:59;5.53;;;3.50;;
4547;SDS011;2286;51.570;7.090;2023-06-14T02:19:27;5.50;;;3.30;;
4547;SDS011;2286;51.570;7.090;2023-06-14T02:21:54;5.50;;;3.70;;
4547;SDS011;2286;51.570;7.090;2023-06-14T02:24:21;5.17;;;3.60;;
4547;SDS011;2286;51.570;7.090;2023-06-14T02:26:48;5.67;;;3.57;;
4547;SDS011;2286;51.570;7.090;2023-06-14T02:29:16;6.33;;;3.60;;
4547;SDS011;2286;51.570;7.090;2023-06-14T02:31:44;3.80;;;3.10;;
4547;SDS011;2286;51.570;7.090;2023-06-14T02:34:13;4.27;;;3.33;;
4547;SDS011;2286;51.570;7.090;2023-06-14T02:36:42;6.87;;;4.27;;
4547;SDS011;2286;51.570;7.090;2023-06-14T02:39:09;5.00;;;3.37;;
4547;SDS011;2286;51.570;7.090;2023-06-14T02:41:36;4.77;;;3.60;;
4547;SDS011;2286;51.570;7.090;2023-06-14T02:44:04;5.10;;;3.60;;
4547;SDS011;2286;51.570;7.090;2023-06-14T02:46:31;4.40;;;3.47;;
4547;SDS011;2286;51.570;7.090;2023-06-14T02:48:59;8.10;;;3.50;;
4547;SDS011;2286;51.570;7.090;2023-06-14T02:51:27;3.90;;;3.00;;
4547;SDS011;2286;51.570;7.090;2023-06-14T02:53:54;3.83;;;3.13;;
4547;SDS011;2286;51.570;7.090;2023-06-14T02:56:21;4.53;;;3.40;;
4547;SDS011;2286;51.570;7.090;2023-06-14T02:58:48;5.43;;;3.40;;
4547;SDS011;2286;51.570;7.090;2023-06-14T03:01:16;4.70;;;3.40;;
4547;SDS011;2286;51.570;7.090;2023-06-14T03:03:43;9.30;;;3.40;;
4547;SDS011;2286;51.570;7.090;2023-06-14T03:06:11;4.10;;;3.10;;
4547;SDS011;2286;51.570;7.090;2023-06-14T03:08:39;5.40;;;3.17;;
4547;SDS011;2286;51.570;7.090;2023-06-14T03:11:06;4.23;;;2.83;;
4547;SDS011;2286;51.570;7.090;2023-06-14T03:13:34;3.37;;;3.07;;
4547;SDS011;2286;51.570;7.090;2023-06-14T03:16:02;4.10;;;3.40;;
4547;SDS011;2286;51.570;7.090;2023-06-14T03:18:29;5.03;;;3.07;;
4547;SDS011;2286;51.570;7.090;2023-06-14T03:21:00;4.63;;;3.20;;
4547;SDS011;2286;51.570;7.090;2023-06-14T03:23:29;3.57;;;3.20;;
4547;SDS011;2286;51.570;7.090;2023-06-14T03:25:56;7.97;;;4.07;;
4547;SDS011;2286;51.570;7.090;2023-06-14T03:28:23;6.00;;;3.90;;
4547;SDS011;2286;51.570;7.090;2023-06-14T03:30:51;3.87;;;3.47;;
4547;SDS011;2286;51.570;7.090;2023-06-14T03:33:17;3.43;;;3.13;;
4547;SDS011;2286;51.570;7.090;2023-06-14T03:35:46;6.07;;;3.13;;
4547;SDS011;2286;51.570;7.090;2023-06-14T03:38:13;5.70;;;3.50;;
4547;SDS011;2286;51.570;7.090;2023-06-14T03:40:41;10.07;;;3.50;;
4547;SDS011;2286;51.570;7.090;2023-06-14T03:43:09;7.83;;;3.40;;
4547;SDS011;2286;51.570;7.090;2023-06-14T03:45:36;3.53;;;3.23;;
4547;SDS011;2286;51.570;7.090;2023-06-14T03:48:04;3.93;;;3.60;;
4547;SDS011;2286;51.570;7.090;2023-06-14T03:50:33;6.23;;;3.93;;
4547;SDS011;2286;51.570;7.090;2023-06-14T03:53:03;3.20;;;2.90;;
4547;SDS011;2286;51.570;7.090;2023-06-14T03:55:30;6.60;;;3.60;;
4547;SDS011;2286;51.570;7.090;2023-06-14T03:57:59;9.30;;;3.10;;
4547;SDS011;2286;51.570;7.090;2023-06-14T04:00:27;7.10;;;3.03;;
4547;SDS011;2286;51.570;7.090;2023-06-14T04:02:54;4.83;;;2.93;;
4547;SDS011;2286;51.570;7.090;2023-06-14T04:05:21;5.47;;;3.30;;
4547;SDS011;2286;51.570;7.090;2023-06-14T04:07:51;3.90;;;3.60;;
4547;SDS011;2286;51.570;7.090;2023-06-14T04:10:20;3.67;;;2.80;;
4547;SDS011;2286;51.570;7.090;2023-06-14T04:12:48;3.40;;;3.10;;
4547;SDS011;2286;51.570;7.090;2023-06-14T04:15:17;4.50;;;3.13;;
4547;SDS011;2286;51.570;7.090;2023-06-14T04:17:44;4.03;;;3.13;;
4547;SDS011;2286;51.570;7.090;2023-06-14T04:20:11;3.83;;;3.00;;
4547;SDS011;2286;51.570;7.090;2023-06-14T04:22:38;4.30;;;2.97;;
4547;SDS011;2286;51.570;7.090;2023-06-14T04:25:06;3.83;;;3.47;;
4547;SDS011;2286;51.570;7.090;2023-06-14T04:27:34;3.80;;;2.77;;
4547;SDS011;2286;51.570;7.090;2023-06-14T04:30:01;5.23;;;3.13;;
4547;SDS011;2286;51.570;7.090;2023-06-14T04:32:30;3.23;;;2.87;;
4547;SDS011;2286;51.570;7.090;2023-06-14T04:34:58;3.50;;;3.03;;
4547;SDS011;2286;51.570;7.090;2023-06-14T04:37:27;4.47;;;2.97;;
4547;SDS011;2286;51.570;7.090;2023-06-14T04:39:55;4.77;;;3.40;;
4547;SDS011;2286;51.570;7.090;2023-06-14T04:42:23;3.50;;;3.00;;
4547;SDS011;2286;51.570;7.090;2023-06-14T04:44:56;7.70;;;3.50;;
4547;SDS011;2286;51.570;7.090;2023-06-14T04:47:23;5.27;;;3.17;;
4547;SDS011;2286;51.570;7.090;2023-06-14T04:49:57;11.97;;;3.40;;
4547;SDS011;2286;51.570;7.090;2023-06-14T04:52:25;14.50;;;4.53;;
4547;SDS011;2286;51.570;7.090;2023-06-14T04:54:54;4.30;;;3.30;;
4547;SDS011;2286;51.570;7.090;2023-06-14T04:57:22;3.60;;;3.30;;
4547;SDS011;2286;51.570;7.090;2023-06-14T04:59:50;5.33;;;2.83;;
4547;SDS011;2286;51.570;7.090;2023-06-14T05:02:20;4.20;;;3.40;;
4547;SDS011;2286;51.570;7.090;2023-06-14T05:04:49;4.13;;;2.90;;
4547;SDS011;2286;51.570;7.090;2023-06-14T05:07:17;4.30;;;3.23;;
4547;SDS011;2286;51.570;7.090;2023-06-14T05:09:45;4.23;;;2.93;;
4547;SDS011;2286;51.570;7.090;2023-06-14T05:12:12;6.20;;;3.20;;
4547;SDS011;2286;51.570;7.090;2023-06-14T05:14:39;4.30;;;3.80;;
4547;SDS011;2286;51.570;7.090;2023-06-14T05:17:06;5.73;;;3.07;;
4547;SDS011;2286;51.570;7.090;2023-06-14T05:19:34;3.83;;;3.47;;
4547;SDS011;2286;51.570;7.090;2023-06-14T05:22:02;10.17;;;3.93;;
4547;SDS011;2286;51.570;7.090;2023-06-14T05:24:30;5.13;;;3.63;;
4547;SDS011;2286;51.570;7.090;2023-06-14T05:26:57;5.80;;;3.67;;
4547;SDS011;2286;51.570;7.090;2023-06-14T05:29:25;5.27;;;3.67;;
4547;SDS011;2286;51.570;7.090;2023-06-14T05:31:52;3.87;;;3.47;;
4547;SDS011;2286;51.570;7.090;2023-06-14T05:34:19;5.53;;;3.40;;
4547;SDS011;2286;51.570;7.090;2023-06-14T05:36:46;7.00;;;3.33;;
4547;SDS011;2286;51.570;7.090;2023-06-14T05:39:14;6.07;;;3.20;;
4547;SDS011;2286;51.570;7.090;2023-06-14T05:41:43;6.53;;;3.20;;
4547;SDS011;2286;51.570;7.090;2023-06-14T05:44:10;3.40;;;2.90;;
4547;SDS011;2286;51.570;7.090;2023-06-14T05:46:38;4.67;;;3.53;;
4547;SDS011;2286;51.570;7.090;2023-06-14T05:49:05;3.63;;;3.17;;
4547;SDS011;2286;51.570;7.090;2023-06-14T05:51:32;10.10;;;3.53;;
4547;SDS011;2286;51.570;7.090;2023-06-14T05:53:59;5.37;;;2.97;;
4547;SDS011;2286;51.570;7.090;2023-06-14T05:56:27;3.40;;;2.87;;
4547;SDS011;2286;51.570;7.090;2023-06-14T05:58:56;5.20;;;2.50;;
4547;SDS011;2286;51.570;7.090;2023-06-14T06:01:23;5.30;;;3.00;;
4547;SDS011;2286;51.570;7.090;2023-06-14T06:03:50;4.40;;;3.07;;
4547;SDS011;2286;51.570;7.090;2023-06-14T06:06:17;9.27;;;2.97;;
4547;SDS011;2286;51.570;7.090;2023-06-14T06:08:44;7.37;;;3.07;;
4547;SDS011;2286;51.570;7.090;2023-06-14T06:11:11;4.10;;;3.00;;
4547;SDS011;2286;51.570;7.090;2023-06-14T06:13:38;3.30;;;3.00;;
4547;SDS011;2286;51.570;7.090;2023-06-14T06:16:07;4.40;;;2.60;;
4547;SDS011;2286;51.570;7.090;2023-06-14T06:18:35;4.27;;;3.17;;
4547;SDS011;2286;51.570;7.090;2023-06-14T06:21:03;7.60;;;2.70;;
4547;SDS011;2286;51.570;7.090;2023-06-14T06:23:30;4.40;;;2.87;;
4547;SDS011;2286;51.570;7.090;2023-06-14T06:25:57;9.00;;;3.73;;
4547;SDS011;2286;51.570;7.090;2023-06-14T06:28:24;2.80;;;2.47;;
4547;SDS011;2286;51.570;7.090;2023-06-14T06:30:52;5.50;;;2.77;;
4547;SDS011;2286;51.570;7.090;2023-06-14T06:33:21;6.57;;;2.80;;
4547;SDS011;2286;51.570;7.090;2023-06-14T06:35:48;3.30;;;2.40;;
4547;SDS011;2286;51.570;7.090;2023-06-14T06:38:15;4.03;;;2.77;;
4547;SDS011;2286;51.570;7.090;2023-06-14T06:40:43;3.80;;;3.00;;
4547;SDS011;2286;51.570;7.090;2023-06-14T06:43:11;9.03;;;2.97;;
4547;SDS011;2286;51.570;7.090;2023-06-14T06:45:39;2.90;;;2.67;;
4547;SDS011;2286;51.570;7.090;2023-06-14T06:48:06;2.80;;;2.60;;
4547;SDS011;2286;51.570;7.090;2023-06-14T06:50:36;3.50;;;2.30;;
4547;SDS011;2286;51.570;7.090;2023-06-14T06:53:03;4.83;;;2.20;;
4547;SDS011;2286;51.570;7.090;2023-06-14T06:55:31;6.03;;;3.03;;
4547;SDS011;2286;51.570;7.090;2023-06-14T06:57:59;7.90;;;2.37;;
4547;SDS011;2286;51.570;7.090;2023-06-14T07:00:26;3.43;;;2.57;;
4547;SDS011;2286;51.570;7.090;2023-06-14T07:02:53;4.00;;;2.10;;
4547;SDS011;2286;51.570;7.090;2023-06-14T07:05:20;5.50;;;2.40;;
4547;SDS011;2286;51.570;7.090;2023-06-14T07:07:48;3.80;;;2.27;;
4547;SDS011;2286;51.570;7.090;2023-06-14T07:10:15;3.57;;;2.10;;
4547;SDS011;2286;51.570;7.090;2023-06-14T07:12:43;3.10;;;2.50;;
4547;SDS011;2286;51.570;7.090;2023-06-14T07:15:10;3.93;;;2.50;;
4547;SDS011;2286;51.570;7.090;2023-06-14T07:17:38;4.50;;;2.27;;
4547;SDS011;2286;51.570;7.090;2023-06-14T07:20:06;6.03;;;2.47;;
4547;SDS011;2286;51.570;7.090;2023-06-14T07:22:38;2.80;;;1.83;;
4547;SDS011;2286;51.570;7.090;2023-06-14T07:25:08;6.33;;;2.40;;
4547;SDS011;2286;51.570;7.090;2023-06-14T07:27:38;4.37;;;2.30;;
4547;SDS011;2286;51.570;7.090;2023-06-14T07:30:06;3.70;;;1.93;;
4547;SDS011;2286;51.570;7.090;2023-06-14T07:32:34;4.53;;;2.63;;
4547;SDS011;2286;51.570;7.090;2023-06-14T07:35:02;7.97;;;2.30;;
4547;SDS011;2286;51.570;7.090;2023-06-14T07:37:29;3.23;;;2.17;;
4547;SDS011;2286;51.570;7.090;2023-06-14T07:39:56;2.87;;;2.40;;
4547;SDS011;2286;51.570;7.090;2023-06-14T07:42:24;2.50;;;2.20;;
4547;SDS011;2286;51.570;7.090;2023-06-14T07:44:51;2.70;;;2.03;;
4547;SDS011;2286;51.570;7.090;2023-06-14T07:47:18;6.83;;;1.60;;
4547;SDS011;2286;51.570;7.090;2023-06-14T07:49:45;3.33;;;2.30;;
4547;SDS011;2286;51.570;7.090;2023-06-14T07:52:12;2.90;;;1.93;;
4547;SDS011;2286;51.570;7.090;2023-06-14T07:54:39;2.63;;;2.43;;
4547;SDS011;2286;51.570;7.090;2023-06-14T07:57:06;3.10;;;2.17;;
4547;SDS011;2286;51.570;7.090;2023-06-14T07:59:35;2.40;;;2.20;;
4547;SDS011;2286;51.570;7.090;2023-06-14T08:02:02;3.67;;;2.67;;
4547;SDS011;2286;51.570;7.090;2023-06-14T08:04:29;4.13;;;2.37;;
4547;SDS011;2286;51.570;7.090;2023-06-14T08:06:57;2.60;;;1.80;;
4547;SDS011;2286;51.570;7.090;2023-06-14T08:09:24;2.50;;;2.30;;
4547;SDS011;2286;51.570;7.090;2023-06-14T08:11:53;4.63;;;2.33;;
4547;SDS011;2286;51.570;7.090;2023-06-14T08:14:19;4.00;;;2.60;;
4547;SDS011;2286;51.570;7.090;2023-06-14T08:16:48;4.20;;;2.00;;
4547;SDS011;2286;51.570;7.090;2023-06-14T08:19:15;3.80;;;2.50;;
4547;SDS011;2286;51.570;7.090;2023-06-14T08:21:43;5.97;;;2.03;;
4547;SDS011;2286;51.570;7.090;2023-06-14T08:24:11;8.37;;;2.47;;
4547;SDS011;2286;51.570;7.090;2023-06-14T08:26:38;3.80;;;2.00;;
4547;SDS011;2286;51.570;7.090;2023-06-14T08:29:06;2.17;;;2.03;;
4547;SDS011;2286;51.570;7.090;2023-06-14T08:31:33;3.23;;;2.17;;
4547;SDS011;2286;51.570;7.090;2023-06-14T08:34:01;3.20;;;1.97;;
4547;SDS011;2286;51.570;7.090;2023-06-14T08:36:28;5.10;;;1.97;;
4547;SDS011;2286;51.570;7.090;2023-06-14T08:38:55;1.70;;;1.60;;
4547;SDS011;2286;51.570;7.090;2023-06-14T08:41:22;2.07;;;1.50;;
4547;SDS011;2286;51.570;7.090;2023-06-14T08:43:50;3.67;;;1.70;;
4547;SDS011;2286;51.570;7.090;2023-06-14T08:46:17;3.20;;;1.93;;
4547;SDS011;2286;51.570;7.090;2023-06-14T08:48:47;1.60;;;1.50;;
4547;SDS011;2286;51.570;7.090;2023-06-14T08:51:17;2.10;;;1.70;;
4547;SDS011;2286;51.570;7.090;2023-06-14T08:53:48;2.70;;;1.57;;
4547;SDS011;2286;51.570;7.090;2023-06-14T08:56:18;1.97;;;1.57;;
4547;SDS011;2286;51.570;7.090;2023-06-14T08:58:47;3.93;;;1.70;;
4547;SDS011;2286;51.570;7.090;2023-06-14T09:01:15;2.70;;;1.40;;
4547;SDS011;2286;51.570;7.090;2023-06-14T09:03:43;1.60;;;1.20;;
4547;SDS011;2286;51.570;7.090;2023-06-14T09:06:10;1.60;;;1.50;;
4547;SDS011;2286;51.570;7.090;2023-06-14T09:08:42;1.83;;;1.40;;
4547;SDS011;2286;51.570;7.090;2023-06-14T09:11:10;1.27;;;1.17;;
4547;SDS011;2286;51.570;7.090;2023-06-14T09:13:38;2.90;;;1.30;;
4547;SDS011;2286;51.570;7.090;2023-06-14T09:16:05;2.03;;;1.40;;
4547;SDS011;2286;51.570;7.090;2023-06-14T09:18:34;3.63;;;1.40;;
4547;SDS011;2286;51.570;7.090;2023-06-14T09:21:02;1.20;;;1.10;;
4547;SDS011;2286;51.570;7.090;2023-06-14T09:23:29;2.00;;;1.07;;
4547;SDS011;2286;51.570;7.090;2023-06-14T09:26:01;1.47;;;1.20;;
4547;SDS011;2286;51.570;7.090;2023-06-14T09:28:32;7.23;;;1.30;;
4547;SDS011;2286;51.570;7.090;2023-06-14T09:30:59;4.83;;;1.60;;
4547;SDS011;2286;51.570;7.090;2023-06-14T09:33:26;1.40;;;1.20;;
4547;SDS011;2286;51.570;7.090;2023-06-14T09:35:54;3.10;;;1.20;;
4547;SDS011;2286;51.570;7.090;2023-06-14T09:38:21;1.23;;;1.03;;
4547;SDS011;2286;51.570;7.090;2023-06-14T09:40:49;3.93;;;1.10;;
4547;SDS011;2286;51.570;7.090;2023-06-14T09:43:18;1.20;;;1.10;;
4547;SDS011;2286;51.570;7.090;2023-06-14T09:45:47;2.80;;;1.30;;
4547;SDS011;2286;51.570;7.090;2023-06-14T09:48:14;1.87;;;0.90;;
4547;SDS011;2286;51.570;7.090;2023-06-14T09:50:43;1.90;;;1.20;;
4547;SDS011;2286;51.570;7.090;2023-06-14T09:53:12;5.63;;;1.10;;
4547;SDS011;2286;51.570;7.090;2023-06-14T09:55:41;1.73;;;1.10;;
4547;SDS011;2286;51.570;7.090;2023-06-14T09:58:09;3.20;;;1.60;;
4547;SDS011;2286;51.570;7.090;2023-06-14T10:00:39;1.80;;;0.90;;
4547;SDS011;2286;51.570;7.090;2023-06-14T10:03:13;1.83;;;0.97;;
4547;SDS011;2286;51.570;7.090;2023-06-14T10:05:43;2.37;;;1.10;;
4547;SDS011;2286;51.570;7.090;2023-06-14T10:08:13;1.50;;;1.40;;
4547;SDS011;2286;51.570;7.090;2023-06-14T10:10:43;1.20;;;1.10;;
4547;SDS011;2286;51.570;7.090;2023-06-14T10:13:10;1.67;;;0.97;;
4547;SDS011;2286;51.570;7.090;2023-06-14T10:15:42;3.60;;;1.20;;
4547;SDS011;2286;51.570;7.090;2023-06-14T10:18:18;2.03;;;1.23;;
4547;SDS011;2286;51.570;7.090;2023-06-14T10:20:52;2.97;;;1.13;;
4547;SDS011;2286;51.570;7.090;2023-06-14T10:23:29;2.17;;;1.20;;
4547;SDS011;2286;51.570;7.090;2023-06-14T10:25:59;1.97;;;1.20;;
4547;SDS011;2286;51.570;7.090;2023-06-14T10:28:26;4.83;;;1.10;;
4547;SDS011;2286;51.570;7.090;2023-06-14T10:31:03;2.20;;;1.20;;
4547;SDS011;2286;51.570;7.090;2023-06-14T10:33:34;1.30;;;1.20;;
4547;SDS011;2286;51.570;7.090;2023-06-14T10:38:59;3.83;;;1.00;;
4547;SDS011;2286;51.570;7.090;2023-06-14T10:41:28;4.07;;;1.40;;
4547;SDS011;2286;51.570;7.090;2023-06-14T10:47:01;1.47;;;1.37;;
4547;SDS011;2286;51.570;7.090;2023-06-14T10:49:39;2.07;;;1.13;;
4547;SDS011;2286;51.570;7.090;2023-06-14T10:52:08;5.80;;;1.40;;
4547;SDS011;2286;51.570;7.090;2023-06-14T10:54:58;2.30;;;1.00;;
4547;SDS011;2286;51.570;7.090;2023-06-14T10:57:31;1.47;;;1.10;;
4547;SDS011;2286;51.570;7.090;2023-06-14T10:59:59;1.80;;;1.70;;
4547;SDS011;2286;51.570;7.090;2023-06-14T11:02:49;2.07;;;1.23;;
4547;SDS011;2286;51.570;7.090;2023-06-14T11:05:25;5.03;;;1.47;;
4547;SDS011;2286;51.570;7.090;2023-06-14T11:10:44;3.10;;;1.63;;
4547;SDS011;2286;51.570;7.090;2023-06-14T11:13:11;1.90;;;1.20;;
4547;SDS011;2286;51.570;7.090;2023-06-14T11:15:38;2.17;;;1.47;;
4547;SDS011;2286;51.570;7.090;2023-06-14T11:18:13;1.10;;;1.00;;
4547;SDS011;2286;51.570;7.090;2023-06-14T11:20:42;1.63;;;1.50;;
4547;SDS011;2286;51.570;7.090;2023-06-14T11:23:09;2.60;;;1.30;;
4547;SDS011;2286;51.570;7.090;2023-06-14T11:25:36;1.80;;;1.33;;
4547;SDS011;2286;51.570;7.090;2023-06-14T11:28:03;4.10;;;1.70;;
4547;SDS011;2286;51.570;7.090;2023-06-14T11:30:30;2.90;;;1.43;;
4547;SDS011;2286;51.570;7.090;2023-06-14T11:32:57;1.63;;;1.30;;
4547;SDS011;2286;51.570;7.090;2023-06-14T11:35:26;3.13;;;1.60;;
4547;SDS011;2286;51.570;7.090;2023-06-14T11:37:53;3.20;;;1.30;;
4547;SDS011;2286;51.570;7.090;2023-06-14T11:40:23;2.97;;;1.40;;
4547;SDS011;2286;51.570;7.090;2023-06-14T11:42:54;3.60;;;1.30;;
4547;SDS011;2286;51.570;7.090;2023-06-14T11:45:25;5.30;;;1.43;;
4547;SDS011;2286;51.570;7.090;2023-06-14T11:47:54;1.77;;;1.50;;
4547;SDS011;2286;51.570;7.090;2023-06-14T11:50:22;2.07;;;1.50;;
4547;SDS011;2286;51.570;7.090;2023-06-14T11:52:53;2.50;;;1.50;;
4547;SDS011;2286;51.570;7.090;2023-06-14T11:55:21;2.57;;;1.40;;
4547;SDS011;2286;51.570;7.090;2023-06-14T11:57:48;2.90;;;1.70;;
4547;SDS011;2286;51.570;7.090;2023-06-14T12:00:16;2.97;;;1.53;;
4547;SDS011;2286;51.570;7.090;2023-06-14T12:02:52;1.77;;;1.53;;
4547;SDS011;2286;51.570;7.090;2023-06-14T12:05:20;8.70;;;1.80;;
4547;SDS011;2286;51.570;7.090;2023-06-14T12:07:48;2.93;;;1.70;;
4547;SDS011;2286;51.570;7.090;2023-06-14T12:10:16;2.90;;;2.00;;
4547;SDS011;2286;51.570;7.090;2023-06-14T12:12:44;2.60;;;1.83;;
4547;SDS011;2286;51.570;7.090;2023-06-14T12:15:11;1.90;;;1.80;;
4547;SDS011;2286;51.570;7.090;2023-06-14T12:17:38;1.63;;;1.53;;
4547;SDS011;2286;51.570;7.090;2023-06-14T12:20:08;1.70;;;1.60;;
4547;SDS011;2286;51.570;7.090;2023-06-14T12:22:39;2.90;;;1.70;;
4547;SDS011;2286;51.570;7.090;2023-06-14T12:25:24;1.70;;;1.60;;
4547;SDS011;2286;51.570;7.090;2023-06-14T12:27:53;2.70;;;1.90;;
4547;SDS011;2286;51.570;7.090;2023-06-14T12:30:20;1.97;;;1.87;;
4547;SDS011;2286;51.570;7.090;2023-06-14T12:32:47;4.40;;;1.90;;
4547;SDS011;2286;51.570;7.090;2023-06-14T12:35:16;3.87;;;1.50;;
4547;SDS011;2286;51.570;7.090;2023-06-14T12:37:44;3.30;;;1.90;;
4547;SDS011;2286;51.570;7.090;2023-06-14T12:40:12;3.37;;;2.10;;
4547;SDS011;2286;51.570;7.090;2023-06-14T12:42:41;2.90;;;2.10;;
4547;SDS011;2286;51.570;7.090;2023-06-14T12:45:08;2.50;;;1.83;;
4547;SDS011;2286;51.570;7.090;2023-06-14T12:47:36;1.97;;;1.87;;
4547;SDS011;2286;51.570;7.090;2023-06-14T12:50:03;2.77;;;2.00;;
4547;SDS011;2286;51.570;7.090;2023-06-14T12:52:31;1.77;;;1.67;;
4547;SDS011;2286;51.570;7.090;2023-06-14T12:55:01;2.43;;;2.10;;
4547;SDS011;2286;51.570;7.090;2023-06-14T12:57:29;5.70;;;1.87;;
4547;SDS011;2286;51.570;7.090;2023-06-14T12:59:59;5.60;;;1.80;;
4547;SDS011;2286;51.570;7.090;2023-06-14T13:02:26;1.97;;;1.70;;
4547;SDS011;2286;51.570;7.090;2023-06-14T13:04:54;1.90;;;1.70;;
4547;SDS011;2286;51.570;7.090;2023-06-14T13:07:23;5.27;;;1.80;;
4547;SDS011;2286;51.570;7.090;2023-06-14T13:09:50;2.90;;;1.63;;
4547;SDS011;2286;51.570;7.090;2023-06-14T13:12:17;2.17;;;1.97;;
4547;SDS011;2286;51.570;7.090;2023-06-14T13:14:45;1.87;;;1.73;;
4547;SDS011;2286;51.570;7.090;2023-06-14T13:17:13;3.10;;;1.63;;
4547;SDS011;2286;51.570;7.090;2023-06-14T13:19:40;1.70;;;1.53;;
4547;SDS011;2286;51.570;7.090;2023-06-14T13:22:08;8.33;;;2.10;;
4547;SDS011;2286;51.570;7.090;2023-06-14T13:24:35;2.23;;;2.03;;
4547;SDS011;2286;51.570;7.090;2023-06-14T13:27:03;2.43;;;1.73;;
4547;SDS011;2286;51.570;7.090;2023-06-14T13:29:30;3.37;;;1.87;;
4547;SDS011;2286;51.570;7.090;2023-06-14T13:31:58;5.93;;;1.93;;
4547;SDS011;2286;51.570;7.090;2023-06-14T13:34:27;2.33;;;2.00;;
4547;SDS011;2286;51.570;7.090;2023-06-14T13:36:54;3.97;;;1.80;;
4547;SDS011;2286;51.570;7.090;2023-06-14T13:39:24;2.53;;;2.00;;
4547;SDS011;2286;51.570;7.090;2023-06-14T13:41:51;2.20;;;1.50;;
4547;SDS011;2286;51.570;7.090;2023-06-14T13:44:18;2.00;;;1.90;;
4547;SDS011;2286;51.570;7.090;2023-06-14T13:46:46;2.27;;;2.07;;
4547;SDS011;2286;51.570;7.090;2023-06-14T13:49:13;4.93;;;2.00;;
4547;SDS011;2286;51.570;7.090;2023-06-14T13:51:42;3.37;;;1.83;;
4547;SDS011;2286;51.570;7.090;2023-06-14T13:54:11;2.20;;;2.00;;
4547;SDS011;2286;51.570;7.090;2023-06-14T13:56:39;2.17;;;2.07;;
4547;SDS011;2286;51.570;7.090;2023-06-14T13:59:06;3.50;;;1.80;;
4547;SDS011;2286;51.570;7.090;2023-06-14T14:01:33;2.17;;;1.60;;
4547;SDS011;2286;51.570;7.090;2023-06-14T14:04:00;2.53;;;1.90;;
4547;SDS011;2286;51.570;7.090;2023-06-14T14:06:27;4.10;;;1.80;;
4547;SDS011;2286;51.570;7.090;2023-06-14T14:08:55;3.57;;;1.93;;
4547;SDS011;2286;51.570;7.090;2023-06-14T14:11:23;2.00;;;1.90;;
4547;SDS011;2286;51.570;7.090;2023-06-14T14:13:50;3.43;;;2.10;;
4547;SDS011;2286;51.570;7.090;2023-06-14T14:16:17;2.10;;;1.90;;
4547;SDS011;2286;51.570;7.090;2023-06-14T14:18:44;2.40;;;1.93;;
4547;SDS011;2286;51.570;7.090;2023-06-14T14:21:11;2.60;;;2.40;;
4547;SDS011;2286;51.570;7.090;2023-06-14T14:23:38;2.90;;;2.33;;
4547;SDS011;2286;51.570;7.090;2023-06-14T14:26:07;2.13;;;2.00;;
4547;SDS011;2286;51.570;7.090;2023-06-14T14:28:34;2.23;;;2.03;;
4547;SDS011;2286;51.570;7.090;2023-06-14T14:31:01;2.30;;;2.10;;
4547;SDS011;2286;51.570;7.090;2023-06-14T14:33:28;5.47;;;2.30;;
4547;SDS011;2286;51.570;7.090;2023-06-14T14:35:55;1.87;;;1.77;;
4547;SDS011;2286;51.570;7.090;2023-06-14T14:38:22;2.60;;;2.00;;
4547;SDS011;2286;51.570;7.090;2023-06-14T14:40:49;5.57;;;2.37;;
4547;SDS011;2286;51.570;7.090;2023-06-14T14:43:17;3.30;;;1.67;;
4547;SDS011;2286;51.570;7.090;2023-06-14T14:45:44;2.40;;;2.20;;
4547;SDS011;2286;51.570;7.090;2023-06-14T14:48:11;3.60;;;2.23;;
4547;SDS011;2286;51.570;7.090;2023-06-14T14:50:38;4.73;;;1.97;;
4547;SDS011;2286;51.570;7.090;2023-06-14T14:53:06;3.40;;;2.70;;
4547;SDS011;2286;51.570;7.090;2023-06-14T14:55:33;3.43;;;1.93;;
4547;SDS011;2286;51.570;7.090;2023-06-14T14:58:02;2.27;;;1.87;;
4547;SDS011;2286;51.570;7.090;2023-06-14T15:00:31;3.50;;;2.37;;
4547;SDS011;2286;51.570;7.090;2023-06-14T15:02:58;2.17;;;2.00;;
4547;SDS011;2286;51.570;7.090;2023-06-14T15:05:25;2.47;;;2.27;;
4547;SDS011;2286;51.570;7.090;2023-06-14T15:07:52;8.30;;;2.27;;
4547;SDS011;2286;51.570;7.090;2023-06-14T15:10:19;4.40;;;1.97;;
4547;SDS011;2286;51.570;7.090;2023-06-14T15:12:46;4.10;;;2.17;;
4547;SDS011;2286;51.570;7.090;2023-06-14T15:15:13;6.07;;;2.27;;
4547;SDS011;2286;51.570;7.090;2023-06-14T15:17:42;4.70;;;2.20;;
4547;SDS011;2286;51.570;7.090;2023-06-14T15:20:09;2.40;;;2.20;;
4547;SDS011;2286;51.570;7.090;2023-06-14T15:22:38;2.27;;;2.13;;
4547;SDS011;2286;51.570;7.090;2023-06-14T15:25:05;1.93;;;1.83;;
4547;SDS011;2286;51.570;7.090;2023-06-14T15:27:33;2.53;;;2.20;;
4547;SDS011;2286;51.570;7.090;2023-06-14T15:30:00;4.00;;;2.10;;